Veidnes — LLSD — position and weather

sailwx.info

Track history (hours):
 
Tides and Currents Weather Stations Pressure Air Temp Water Temp Dewpoint Dewpoint Depression Visibility Wind Speed Wind Dir Waves Ship Positions

Veidnes

Last reported at 2014-Sep-16 21:31 UTC. Time now 2014-Sep-17 09:38 UTC.
Position N 67°40' E 014°43'.

Length 50 m; draft 5 m.

Type: Cargo ship. MMSI: 259237000.

Date/timePositionNaut miles runAvg speedWind from/ knotsBaromVisibWave heightAir tempDewpointWater temp
2014-Sep-16 21:31N 67°40' E 014°43'1 0.1
2014-Sep-16 15:34N 67°40' E 014°42'1310.0
2014-Sep-16 14:17N 67°52' E 014°48'12 0.7
2014-Sep-15 20:19N 67°40' E 014°42'3 0.6
2014-Sep-15 14:30N 67°39' E 014°50'14 0.4
2014-Sep-14 06:34N 67°28' E 014°28'9 9.2
2014-Sep-14 05:34N 67°19' E 014°19'10 9.8
2014-Sep-14 04:33N 67°11' E 014°05'13 9.5
2014-Sep-14 03:14N 67°01' E 013°44'46 2.0
2014-Sep-13 04:31N 66°19' E 012°56'10 9.8
2014-Sep-13 03:32N 66°28' E 012°59'37 9.1
2014-Sep-12 23:28N 67°01' E 013°44'10 9.8
2014-Sep-12 22:30N 67°08' E 014°01'9 9.8
2014-Sep-12 21:34N 67°16' E 014°13'4 4.0
2014-Sep-12 20:33N 67°17' E 014°23'0 0.0
2014-Sep-12 19:34N 67°17' E 014°23'3 3.4
2014-Sep-12 18:33N 67°20' E 014°23'1110.6
2014-Sep-12 17:34N 67°31' E 014°31'  
Track history (hours):
 
Tides and Currents Weather Stations Pressure Air Temp Water Temp Dewpoint Dewpoint Depression Visibility Wind Speed Wind Dir Waves Ship Positions

Veidnes

Last reported at 2014-Sep-16 21:31 UTC. Time now 2014-Sep-17 09:38 UTC.
Position N 67°40' E 014°43'.

Length 50 m; draft 5 m.

Type: Cargo ship. MMSI: 259237000.

Date/timePositionNaut miles runAvg speedWind from/ knotsBaromVisibWave heightAir tempDewpointWater temp
2014-Sep-16 21:31N 67°40' E 014°43'1 0.1
2014-Sep-16 15:34N 67°40' E 014°42'1310.0
2014-Sep-16 14:17N 67°52' E 014°48'12 0.7
2014-Sep-15 20:19N 67°40' E 014°42'3 0.6
2014-Sep-15 14:30N 67°39' E 014°50'14 0.4
2014-Sep-14 06:34N 67°28' E 014°28'9 9.2
2014-Sep-14 05:34N 67°19' E 014°19'10 9.8
2014-Sep-14 04:33N 67°11' E 014°05'13 9.5
2014-Sep-14 03:14N 67°01' E 013°44'46 2.0
2014-Sep-13 04:31N 66°19' E 012°56'10 9.8
2014-Sep-13 03:32N 66°28' E 012°59'37 9.1
2014-Sep-12 23:28N 67°01' E 013°44'10 9.8
2014-Sep-12 22:30N 67°08' E 014°01'9 9.8
2014-Sep-12 21:34N 67°16' E 014°13'4 4.0
2014-Sep-12 20:33N 67°17' E 014°23'0 0.0
2014-Sep-12 19:34N 67°17' E 014°23'3 3.4
2014-Sep-12 18:33N 67°20' E 014°23'1110.6
2014-Sep-12 17:34N 67°31' E 014°31'  

Dump ship's entire track history